HTDA/DAR METAR and TAF weather

Enter ICAO airport designator
Station Type Date Time Source
HTDA METAR 2019/05/19 20:00 UTC NOAA

HTDA 192000Z 21006KT 9999 SCT013 24/24 Q1015 NOSIG


Station Type Date Time Source
HTDA Decoded METAR 2019/05/19 20:00 UTC NOAA

Dar Es Salaam Airport, Tanzania (HTDA) 06-52S 039-12E 55M
May 19, 2019 - 04:00 PM EDT / 2019.05.19 2000 UTC
Wind: from the SSW (210 degrees) at 7 MPH (6 KT):0
Visibility: greater than 7 mile(s):0
Sky conditions: partly cloudy
Temperature: 75 F (24 C)
Dew Point: 75 F (24 C)
Relative Humidity: 100%
Pressure (altimeter): 29.97 in. Hg (1015 hPa)
ob: HTDA 192000Z 21006KT 9999 SCT013 24/24 Q1015 NOSIG
cycle: 20

Station Type Date Time Source
HTDA TAF 2019/05/19 18:54 UTC NOAA

TAF HTDA 191700Z 1918/2024 00000KT 9999 SCT012 FEW014CB
BECMG 20072010 18010KT

Example: see airport list